Time;durP1;ratioP1;P1;durP2;ratioP2;P2;SDS_P1;SDS_P2;PMS_P1;PMS_P2;Temp;Humidity;BMP_temperature;BMP_pressure;BME280_temperature;BME280_humidity;BME280_pressure;Samples;Min_cycle;Max_cycle;Signal;HPM_P1;HPM_P2
2022/07/24 00:02:07;;;;;;;4.57;3.57;;;20.80;99.90;;;;;;5135427;27;20629;-67
2022/07/24 00:04:34;;;;;;;5.03;3.87;;;20.80;99.90;;;;;;5135714;27;20198;-67
2022/07/24 00:07:03;;;;;;;7.93;4.17;;;20.80;99.90;;;;;;5135259;27;20212;-68
2022/07/24 00:09:30;;;;;;;6.63;3.57;;;20.80;99.90;;;;;;5134087;27;20203;-67
2022/07/24 00:12:00;;;;;;;4.23;3.43;;;20.70;99.90;;;;;;5133794;27;20306;-68
2022/07/24 00:14:27;;;;;;;5.27;3.73;;;20.80;99.90;;;;;;5134249;27;20690;-68
2022/07/24 00:16:54;;;;;;;3.60;3.27;;;20.70;99.90;;;;;;5135161;27;20199;-66
2022/07/24 00:19:21;;;;;;;5.57;3.50;;;20.70;99.90;;;;;;5134108;27;20210;-68
2022/07/24 00:21:48;;;;;;;4.53;3.40;;;20.70;99.90;;;;;;5135136;27;20678;-67
2022/07/24 00:24:16;;;;;;;6.87;3.60;;;20.70;99.90;;;;;;5134962;27;20198;-67
2022/07/24 00:26:43;;;;;;;4.17;3.37;;;20.70;99.90;;;;;;5135313;27;20289;-68
2022/07/24 00:29:10;;;;;;;5.67;3.50;;;20.70;99.90;;;;;;5133646;27;20293;-68
2022/07/24 00:31:37;;;;;;;4.07;3.20;;;20.70;99.90;;;;;;5134947;27;20246;-66
2022/07/24 00:34:04;;;;;;;9.37;3.23;;;20.70;99.90;;;;;;5134837;27;20279;-66
2022/07/24 00:36:31;;;;;;;4.07;3.23;;;20.70;99.90;;;;;;5135052;27;20206;-69
2022/07/24 00:38:58;;;;;;;5.97;3.20;;;20.80;99.90;;;;;;5133330;27;20200;-68
2022/07/24 00:41:26;;;;;;;5.00;3.10;;;20.80;99.90;;;;;;5134698;27;20207;-68
2022/07/24 01:00:52;;;;;;;3.67;3.03;;;20.80;99.90;;;;;;5109116;27;20545;-66
2022/07/24 01:03:19;;;;;;;4.33;2.97;;;21.00;99.90;;;;;;5108653;28;20243;-66
2022/07/24 01:05:47;;;;;;;5.47;3.10;;;20.90;99.90;;;;;;5100473;28;20203;-66
2022/07/24 01:08:14;;;;;;;4.70;3.10;;;20.90;99.90;;;;;;5108311;28;20746;-66
2022/07/24 02:17:22;;;;;;;3.60;2.90;;;19.80;99.90;;;;;;4998884;28;20581;-69
2022/07/24 02:19:49;;;;;;;3.40;2.93;;;20.30;99.90;;;;;;5005666;28;20213;-68
2022/07/24 02:22:16;;;;;;;4.43;2.80;;;20.40;99.90;;;;;;5005488;28;20294;-69
2022/07/24 02:52:38;;;;;;;3.03;2.63;;;20.70;99.90;;;;;;5150281;27;20550;-67
2022/07/24 02:55:06;;;;;;;3.67;2.83;;;21.10;99.90;;;;;;5150310;27;20212;-68
2022/07/24 02:57:33;;;;;;;3.53;2.90;;;21.20;99.90;;;;;;5149381;27;20201;-68
2022/07/24 03:00:00;;;;;;;3.67;3.30;;;21.20;99.90;;;;;;5150160;27;20297;-67
2022/07/24 03:02:27;;;;;;;5.20;2.90;;;21.20;99.90;;;;;;5150133;27;20206;-67
2022/07/24 03:04:54;;;;;;;4.17;2.87;;;21.30;99.90;;;;;;5150306;27;20628;-67
2022/07/24 03:07:21;;;;;;;4.40;3.00;;;21.30;99.90;;;;;;5149027;27;20206;-67
2022/07/24 03:09:49;;;;;;;5.30;2.90;;;21.30;99.90;;;;;;5150250;27;20659;-68
2022/07/24 03:12:16;;;;;;;4.60;2.97;;;21.40;99.90;;;;;;5149929;27;20300;-68
2022/07/24 03:14:43;;;;;;;3.27;2.83;;;21.40;99.90;;;;;;5150382;27;20292;-68
2022/07/24 03:17:10;;;;;;;3.73;2.40;;;21.40;99.90;;;;;;5148758;27;20743;-68
2022/07/24 03:19:37;;;;;;;4.00;2.70;;;21.50;99.90;;;;;;5150203;27;20638;-68
2022/07/24 03:22:04;;;;;;;3.57;2.60;;;21.50;99.90;;;;;;5149821;27;20218;-68
2022/07/24 03:24:30;;;;;;;3.73;2.90;;;21.60;99.90;;;;;;5149833;27;20204;-69
2022/07/24 03:26:59;;;;;;;5.43;3.17;;;21.70;99.90;;;;;;5149073;27;20290;-68
2022/07/24 03:29:26;;;;;;;4.27;2.93;;;21.80;99.90;;;;;;5149631;27;20297;-68
2022/07/24 03:31:52;;;;;;;3.50;2.93;;;21.80;99.90;;;;;;5150019;27;20198;-68
2022/07/24 03:34:19;;;;;;;5.00;2.97;;;21.90;99.90;;;;;;5149626;27;20289;-68
2022/07/24 03:36:46;;;;;;;2.90;2.60;;;21.90;99.90;;;;;;5148915;27;20207;-68
2022/07/24 03:39:13;;;;;;;4.53;2.90;;;22.00;99.90;;;;;;5149165;27;20250;-68
2022/07/24 03:41:40;;;;;;;4.03;2.63;;;22.00;99.90;;;;;;5149523;27;20236;-68
2022/07/24 03:44:09;;;;;;;3.50;3.10;;;22.10;99.90;;;;;;5149429;27;20309;-68
2022/07/24 03:46:36;;;;;;;7.20;2.63;;;22.10;99.90;;;;;;5148069;27;20202;-68
2022/07/24 03:49:02;;;;;;;5.17;2.40;;;22.20;99.90;;;;;;5131083;27;20202;-67
2022/07/24 03:51:29;;;;;;;7.40;2.90;;;22.30;99.90;;;;;;5138111;27;20721;-67
2022/07/24 03:53:57;;;;;;;2.67;2.47;;;22.40;99.90;;;;;;5134764;27;20262;-68
2022/07/24 03:56:23;;;;;;;4.20;2.77;;;22.40;99.90;;;;;;5133990;27;20205;-68
2022/07/24 03:58:50;;;;;;;3.07;2.50;;;22.50;99.90;;;;;;5135317;27;20210;-68
2022/07/24 04:01:19;;;;;;;4.20;2.93;;;22.50;99.90;;;;;;5134719;27;20234;-68
2022/07/24 04:03:46;;;;;;;4.53;2.70;;;22.60;99.90;;;;;;5135076;27;20297;-68
2022/07/24 04:06:13;;;;;;;4.10;2.57;;;22.60;99.90;;;;;;5133746;27;20676;-69
2022/07/24 04:08:40;;;;;;;3.63;2.70;;;22.70;99.90;;;;;;5135236;27;20605;-71
2022/07/24 04:11:07;;;;;;;5.30;2.90;;;22.70;99.90;;;;;;5135074;27;20632;-68
2022/07/24 04:13:34;;;;;;;2.90;2.63;;;22.80;99.90;;;;;;5134945;27;20259;-68
2022/07/24 04:16:01;;;;;;;5.23;2.60;;;22.90;99.90;;;;;;5134931;27;20729;-68
2022/07/24 04:18:29;;;;;;;2.83;2.43;;;22.90;99.90;;;;;;5133549;27;20266;-67
2022/07/24 04:20:56;;;;;;;3.70;2.40;;;23.00;99.90;;;;;;5134431;27;20233;-68
2022/07/24 04:23:23;;;;;;;2.97;2.40;;;23.10;99.90;;;;;;5134775;27;20294;-68
2022/07/24 04:25:50;;;;;;;3.20;2.60;;;23.10;99.90;;;;;;5134905;27;20256;-67
2022/07/24 04:28:17;;;;;;;3.73;2.37;;;23.20;99.90;;;;;;5133377;27;20211;-67
2022/07/24 04:30:44;;;;;;;2.63;2.43;;;23.30;99.90;;;;;;5134915;27;20221;-69
2022/07/24 04:33:11;;;;;;;4.20;2.40;;;23.40;99.90;;;;;;5134636;27;20210;-68
2022/07/24 04:35:39;;;;;;;3.13;2.63;;;23.50;99.90;;;;;;5134965;27;20304;-67
2022/07/24 04:38:06;;;;;;;2.33;2.13;;;23.50;99.90;;;;;;5131946;27;20207;-68
2022/07/24 04:40:33;;;;;;;4.53;2.53;;;23.60;99.90;;;;;;5134732;27;20685;-68
2022/07/24 04:43:00;;;;;;;3.53;2.70;;;23.70;99.90;;;;;;5134598;27;20292;-68
2022/07/24 04:45:27;;;;;;;2.50;2.30;;;23.70;99.90;;;;;;5133046;27;20214;-68
2022/07/24 04:47:53;;;;;;;3.60;2.30;;;23.80;99.90;;;;;;5134437;27;20609;-68
2022/07/24 04:50:20;;;;;;;3.23;2.27;;;23.80;99.90;;;;;;5134257;27;20289;-68
2022/07/24 04:52:49;;;;;;;2.70;2.50;;;23.90;99.90;;;;;;5134047;27;20237;-68
2022/07/24 04:55:16;;;;;;;3.83;2.20;;;24.00;99.90;;;;;;5122941;27;20286;-68
2022/07/24 04:57:42;;;;;;;3.73;2.40;;;24.10;99.90;;;;;;5113867;28;20237;-70
2022/07/24 05:00:12;;;;;;;5.07;2.10;;;24.10;99.90;;;;;;5113131;28;20295;-69
2022/07/24 05:02:40;;;;;;;4.80;2.30;;;24.20;99.90;;;;;;5114998;27;20227;-69
2022/07/24 05:05:07;;;;;;;2.33;2.13;;;24.30;99.90;;;;;;5132919;27;20221;-69
2022/07/24 05:07:34;;;;;;;2.20;2.00;;;24.40;99.90;;;;;;5134202;27;20205;-67
2022/07/24 05:10:03;;;;;;;3.40;2.20;;;24.40;99.90;;;;;;5129868;27;20305;-71
2022/07/24 05:12:30;;;;;;;3.33;2.50;;;24.50;99.90;;;;;;5117170;27;20206;-68
2022/07/24 05:14:57;;;;;;;3.87;2.30;;;24.50;99.90;;;;;;5113363;28;20682;-67
2022/07/24 05:17:23;;;;;;;5.27;2.60;;;24.50;99.90;;;;;;5113588;28;20298;-70
2022/07/24 05:19:50;;;;;;;4.10;2.70;;;24.50;99.90;;;;;;5113334;28;20210;-67
2022/07/24 05:22:17;;;;;;;4.33;2.30;;;24.50;99.90;;;;;;5122069;27;20221;-68
2022/07/24 05:24:44;;;;;;;4.20;2.43;;;24.50;99.90;;;;;;5133523;27;20204;-70
2022/07/24 05:27:12;;;;;;;3.23;2.40;;;24.60;99.90;;;;;;5133850;27;20202;-68
2022/07/24 05:29:39;;;;;;;5.50;2.40;;;24.70;99.90;;;;;;5133744;27;20208;-68
2022/07/24 05:32:09;;;;;;;3.67;2.30;;;24.70;99.90;;;;;;5132174;27;20565;-67
2022/07/24 05:34:36;;;;;;;3.30;2.43;;;24.80;99.90;;;;;;5133693;27;20245;-67
2022/07/24 05:37:03;;;;;;;9.13;2.67;;;24.90;99.90;;;;;;5133266;27;20209;-66
2022/07/24 05:39:30;;;;;;;4.13;2.40;;;24.90;99.90;;;;;;5132362;27;20297;-69
2022/07/24 05:41:57;;;;;;;3.97;2.50;;;25.00;99.90;;;;;;5133302;27;20766;-70
2022/07/24 05:44:25;;;;;;;2.93;2.47;;;25.00;99.90;;;;;;5130300;27;20286;-66
2022/07/24 05:46:52;;;;;;;2.70;2.50;;;25.10;99.90;;;;;;5112844;28;20205;-67
2022/07/24 05:49:19;;;;;;;4.50;2.53;;;25.20;99.90;;;;;;5112970;28;20689;-67
2022/07/24 05:51:46;;;;;;;5.77;2.73;;;25.30;99.90;;;;;;5115093;27;20255;-66
2022/07/24 05:54:13;;;;;;;3.70;3.30;;;25.40;99.90;;;;;;5130045;27;20281;-66
2022/07/24 05:56:40;;;;;;;5.33;3.10;;;25.40;99.90;;;;;;5112086;27;20238;-68
2022/07/24 05:59:06;;;;;;;4.17;3.03;;;25.50;99.90;;;;;;5112483;28;20208;-67
2022/07/24 06:01:35;;;;;;;5.57;2.70;;;25.50;99.90;;;;;;5112678;28;20717;-66
2022/07/24 06:04:02;;;;;;;8.10;3.10;;;25.60;99.90;;;;;;5130232;27;20292;-68
2022/07/24 06:06:29;;;;;;;3.92;2.75;;;25.70;99.90;;;;;;5131368;27;20294;-66
2022/07/24 06:08:56;;;;;;;4.07;3.10;;;25.70;99.90;;;;;;5132280;27;20292;-66
2022/07/24 06:11:23;;;;;;;5.07;3.07;;;25.70;99.90;;;;;;5132641;27;20291;-66
2022/07/24 06:13:50;;;;;;;4.80;3.30;;;25.80;99.90;;;;;;5130906;27;20203;-66
2022/07/24 06:16:17;;;;;;;4.63;2.80;;;25.80;99.90;;;;;;5127548;27;20206;-66
2022/07/24 06:18:45;;;;;;;3.63;2.55;;;25.80;99.90;;;;;;5131054;27;20198;-69
2022/07/24 06:21:12;;;;;;;3.50;2.80;;;25.90;99.90;;;;;;5131311;27;20215;-67
2022/07/24 06:23:39;;;;;;;2.60;2.40;;;26.00;99.90;;;;;;5117268;27;20233;-67
2022/07/24 06:26:06;;;;;;;5.38;3.00;;;26.00;99.90;;;;;;5111430;28;20609;-65
2022/07/24 06:28:33;;;;;;;2.85;2.40;;;26.00;99.90;;;;;;5110962;28;20259;-66
2022/07/24 06:31:00;;;;;;;2.45;2.25;;;26.10;99.90;;;;;;5111685;28;20212;-67
2022/07/24 06:33:27;;;;;;;3.53;2.33;;;26.10;99.90;;;;;;5115746;28;20233;-67
2022/07/24 06:35:55;;;;;;;3.17;2.05;;;26.20;99.90;;;;;;5111639;28;20216;-67
2022/07/24 06:38:22;;;;;;;4.18;2.08;;;26.20;99.90;;;;;;5114022;28;20292;-67
2022/07/24 06:40:50;;;;;;;4.35;2.33;;;26.20;99.90;;;;;;5115880;28;20690;-67
2022/07/24 06:43:16;;;;;;;2.40;2.20;;;26.30;99.90;;;;;;5114384;28;20350;-64
2022/07/24 06:45:44;;;;;;;2.70;2.50;;;26.40;99.90;;;;;;5111781;28;20238;-68
2022/07/24 06:48:10;;;;;;;4.50;2.10;;;26.40;99.90;;;;;;5112183;28;20228;-67
2022/07/24 06:50:37;;;;;;;2.25;1.92;;;26.50;99.90;;;;;;5111578;28;20245;-67
2022/07/24 06:53:06;;;;;;;1.70;1.60;;;26.50;99.90;;;;;;5126124;28;20188;-65
2022/07/24 06:55:32;;;;;;;2.30;2.10;;;26.60;99.90;;;;;;5132268;27;20309;-66
2022/07/24 06:57:59;;;;;;;2.95;2.15;;;26.60;99.90;;;;;;5129966;27;20716;-68
2022/07/24 07:00:26;;;;;;;3.28;1.90;;;26.70;99.90;;;;;;5132402;27;20758;-66
2022/07/24 07:02:53;;;;;;;3.45;1.90;;;26.70;99.90;;;;;;5122908;27;20216;-65
2022/07/24 07:05:20;;;;;;;3.83;2.13;;;26.80;99.90;;;;;;5116500;27;20293;-67
2022/07/24 07:07:47;;;;;;;5.68;2.70;;;26.90;99.90;;;;;;5113933;28;20662;-66
2022/07/24 07:10:15;;;;;;;4.93;2.30;;;27.00;99.90;;;;;;5132409;27;20311;-67
2022/07/24 07:12:42;;;;;;;3.90;2.35;;;27.10;99.90;;;;;;5131964;27;20629;-66
2022/07/24 07:15:10;;;;;;;4.03;1.77;;;27.10;99.90;;;;;;5117673;27;20667;-66
2022/07/24 07:17:38;;;;;;;3.15;1.90;;;27.20;99.90;;;;;;5131977;27;20201;-71
2022/07/24 07:20:06;;;;;;;3.10;2.70;;;27.30;99.90;;;;;;5129977;27;20300;-71
2022/07/24 07:22:33;;;;;;;2.40;1.98;;;27.30;99.90;;;;;;5125149;27;20223;-70
2022/07/24 07:25:00;;;;;;;2.20;1.90;;;27.40;99.90;;;;;;5113530;27;20315;-69
2022/07/24 07:27:28;;;;;;;2.83;2.03;;;27.50;99.90;;;;;;5124076;27;20287;-71
2022/07/24 07:29:55;;;;;;;3.88;2.05;;;27.60;99.90;;;;;;5135612;27;20287;-70
2022/07/24 07:32:22;;;;;;;2.55;2.08;;;27.60;99.90;;;;;;5129300;27;20216;-70
2022/07/24 07:34:50;;;;;;;4.45;1.90;;;27.70;99.90;;;;;;5122487;27;20236;-74
2022/07/24 07:37:17;;;;;;;3.50;2.10;;;27.80;99.90;;;;;;5115218;27;20211;-68
2022/07/24 07:39:43;;;;;;;2.95;1.98;;;27.90;99.90;;;;;;5114506;28;20251;-69
2022/07/24 07:42:10;;;;;;;2.95;1.95;;;27.90;99.90;;;;;;5114493;28;20226;-68
2022/07/24 07:44:39;;;;;;;2.25;2.05;;;28.00;99.90;;;;;;5114338;28;20205;-68
2022/07/24 07:47:06;;;;;;;2.85;2.22;;;28.10;99.90;;;;;;5114701;28;20251;-71
2022/07/24 07:49:32;;;;;;;3.55;2.58;;;28.20;99.90;;;;;;5117320;27;20205;-70
2022/07/24 07:52:01;;;;;;;4.35;2.42;;;28.20;99.90;;;;;;5128930;27;20320;-69
2022/07/24 07:54:28;;;;;;;2.58;2.00;;;28.30;99.90;;;;;;5122927;27;20244;-69
2022/07/24 07:56:55;;;;;;;3.08;1.92;;;28.40;99.90;;;;;;5121321;27;20271;-70
2022/07/24 07:59:22;;;;;;;2.63;2.10;;;28.50;99.90;;;;;;5134410;27;20206;-69
2022/07/24 08:01:50;;;;;;;2.25;2.05;;;28.60;99.90;;;;;;5134536;27;20730;-70
2022/07/24 08:04:17;;;;;;;5.18;2.40;;;28.70;99.90;;;;;;5131617;27;20235;-69
2022/07/24 08:06:44;;;;;;;7.53;2.30;;;28.70;99.90;;;;;;5129290;27;20204;-69
2022/07/24 08:09:11;;;;;;;2.10;1.90;;;28.80;99.90;;;;;;5134364;27;20273;-69
2022/07/24 08:11:38;;;;;;;3.25;2.00;;;28.80;99.80;;;;;;5134118;27;20281;-69
2022/07/24 08:14:05;;;;;;;3.35;2.08;;;28.80;99.90;;;;;;5128717;27;20573;-71
2022/07/24 08:16:32;;;;;;;4.15;2.03;;;28.90;99.40;;;;;;5134444;27;20570;-69
2022/07/24 08:19:00;;;;;;;2.10;1.80;;;28.90;99.30;;;;;;5134764;27;20663;-69
2022/07/24 08:21:28;;;;;;;2.67;1.90;;;29.00;99.30;;;;;;5134632;27;20297;-70
2022/07/24 08:23:54;;;;;;;2.58;2.10;;;29.00;99.00;;;;;;5124778;27;20205;-70
2022/07/24 08:26:21;;;;;;;3.10;1.90;;;29.00;99.00;;;;;;5128401;27;20202;-70
2022/07/24 08:28:48;;;;;;;2.42;2.00;;;29.10;99.10;;;;;;5122767;27;20207;-70
2022/07/24 08:31:15;;;;;;;3.38;1.80;;;29.10;99.30;;;;;;5132970;27;20674;-72
2022/07/24 08:33:42;;;;;;;3.45;2.17;;;29.20;98.90;;;;;;5134209;27;20230;-69
2022/07/24 08:36:10;;;;;;;2.03;1.80;;;29.20;98.00;;;;;;5134090;27;20210;-69
2022/07/24 08:38:37;;;;;;;2.08;1.83;;;29.20;97.60;;;;;;5133990;27;20269;-72
2022/07/24 08:41:06;;;;;;;5.13;2.80;;;29.30;97.70;;;;;;5134231;27;20213;-71
2022/07/24 08:43:32;;;;;;;4.43;2.67;;;29.40;97.60;;;;;;5134049;27;20267;-71
2022/07/24 08:46:01;;;;;;;3.53;2.03;;;29.40;97.50;;;;;;5134241;27;20540;-70
2022/07/24 08:48:29;;;;;;;4.28;2.15;;;29.50;97.50;;;;;;5134125;27;20209;-70
2022/07/24 08:50:57;;;;;;;4.55;1.90;;;29.50;97.20;;;;;;5133960;27;20731;-70
2022/07/24 08:53:26;;;;;;;3.28;2.00;;;29.60;97.90;;;;;;5134159;27;20527;-69
2022/07/24 08:55:53;;;;;;;2.92;1.85;;;29.70;97.70;;;;;;5134197;27;20266;-70
2022/07/24 08:58:20;;;;;;;2.08;1.85;;;29.80;98.10;;;;;;5133818;27;20202;-68
2022/07/24 09:00:46;;;;;;;2.65;2.20;;;29.90;97.60;;;;;;5133994;27;20246;-69
2022/07/24 09:03:13;;;;;;;2.45;2.10;;;29.90;97.40;;;;;;5133795;27;20230;-71
2022/07/24 09:05:54;;;;;;;2.20;2.00;;;30.00;97.30;;;;;;5134041;27;20298;-69
2022/07/24 09:08:21;;;;;;;3.50;2.05;;;30.00;97.00;;;;;;5133587;27;20201;-69
2022/07/24 09:10:58;;;;;;;2.67;1.80;;;30.20;97.10;;;;;;5133545;27;20202;-69
2022/07/24 09:13:29;;;;;;;2.85;2.20;;;30.30;97.00;;;;;;5133446;27;20620;-69
2022/07/24 09:15:56;;;;;;;4.60;2.15;;;30.40;96.70;;;;;;5133600;27;20191;-70
2022/07/24 09:18:28;;;;;;;3.20;2.20;;;30.40;96.20;;;;;;5133438;27;20204;-70
2022/07/24 09:20:55;;;;;;;4.25;2.78;;;30.50;96.20;;;;;;5133568;27;20281;-69
2022/07/24 09:23:22;;;;;;;2.60;2.40;;;30.60;96.00;;;;;;5133182;27;20244;-70
2022/07/24 09:25:52;;;;;;;3.38;2.05;;;30.60;95.60;;;;;;5133194;27;20206;-70
2022/07/24 09:28:21;;;;;;;3.03;1.98;;;30.60;95.30;;;;;;5132989;27;20202;-68
2022/07/24 09:30:48;;;;;;;3.10;2.17;;;30.70;94.90;;;;;;5120800;27;20562;-69
2022/07/24 09:33:18;;;;;;;2.13;1.83;;;30.70;94.50;;;;;;5125669;27;20229;-68
2022/07/24 09:35:47;;;;;;;5.60;2.08;;;30.60;93.90;;;;;;5133146;27;20234;-68
2022/07/24 09:38:16;;;;;;;3.50;1.80;;;30.50;94.30;;;;;;5127876;27;20199;-68
2022/07/24 09:40:45;;;;;;;2.80;1.85;;;30.60;94.30;;;;;;5128185;27;20281;-68
2022/07/24 09:43:18;;;;;;;3.75;2.35;;;30.50;94.20;;;;;;5132486;27;20577;-68
2022/07/24 09:45:59;;;;;;;2.40;1.80;;;30.50;93.80;;;;;;5127380;27;20302;-69
2022/07/24 09:48:29;;;;;;;3.80;2.08;;;30.40;94.00;;;;;;5126133;27;20186;-68
2022/07/24 09:50:58;;;;;;;5.78;2.50;;;30.30;93.90;;;;;;5132150;27;20768;-69
2022/07/24 09:53:27;;;;;;;3.70;2.63;;;30.20;94.10;;;;;;5132906;27;20225;-68
2022/07/24 09:56:02;;;;;;;8.55;2.15;;;30.10;94.20;;;;;;5132771;27;20255;-69
2022/07/24 09:58:30;;;;;;;3.67;2.08;;;30.10;94.40;;;;;;5132792;27;20235;-70
2022/07/24 10:01:00;;;;;;;2.65;2.08;;;30.10;94.90;;;;;;5132786;27;20251;-68
2022/07/24 10:03:30;;;;;;;3.75;1.85;;;30.00;95.00;;;;;;5131740;27;20708;-69
2022/07/24 10:05:59;;;;;;;5.55;2.88;;;30.00;95.20;;;;;;5132756;27;20203;-67
2022/07/24 10:08:27;;;;;;;2.80;1.92;;;30.00;95.60;;;;;;5117696;27;20211;-66
2022/07/24 10:10:55;;;;;;;2.78;2.00;;;29.90;95.90;;;;;;5118472;27;20294;-67
2022/07/24 10:13:24;;;;;;;2.88;2.00;;;29.90;96.00;;;;;;5119165;27;20290;-66
2022/07/24 10:16:14;;;;;;;4.40;2.30;;;29.90;96.10;;;;;;5115135;27;20210;-67
2022/07/24 10:18:48;;;;;;;4.22;2.15;;;29.90;96.00;;;;;;5132346;27;20195;-67
2022/07/24 10:21:18;;;;;;;4.68;2.30;;;29.80;96.40;;;;;;5119792;27;20211;-67
2022/07/24 10:24:04;;;;;;;3.05;1.90;;;29.80;96.40;;;;;;5119340;27;20210;-67
2022/07/24 10:26:35;;;;;;;5.78;2.17;;;29.80;96.20;;;;;;5132384;27;20278;-66
2022/07/24 10:29:07;;;;;;;3.22;2.15;;;29.70;96.10;;;;;;5132067;27;20778;-66
2022/07/24 10:31:37;;;;;;;3.75;2.40;;;29.50;96.70;;;;;;5111645;28;20194;-67
2022/07/24 10:34:11;;;;;;;4.00;2.08;;;29.40;96.70;;;;;;5111859;28;20570;-66
2022/07/24 10:36:46;;;;;;;3.00;2.53;;;29.30;96.60;;;;;;5112022;28;20603;-66
2022/07/24 10:39:21;;;;;;;3.13;2.08;;;29.30;96.90;;;;;;5130602;27;20292;-67
2022/07/24 10:42:02;;;;;;;3.38;2.03;;;29.40;96.70;;;;;;5131710;27;20246;-67
2022/07/24 10:44:29;;;;;;;5.13;2.30;;;29.40;96.70;;;;;;5131457;27;20222;-67
2022/07/24 10:47:25;;;;;;;2.97;2.03;;;29.40;96.50;;;;;;5120654;27;20700;-67
2022/07/24 10:49:53;;;;;;;4.20;2.40;;;29.40;96.90;;;;;;5110067;28;20202;-66
2022/07/24 10:52:27;;;;;;;2.92;2.30;;;29.30;96.50;;;;;;5110979;28;20261;-67
2022/07/24 10:55:26;;;;;;;6.43;2.20;;;29.30;96.40;;;;;;5111567;28;20207;-67
2022/07/24 10:57:59;;;;;;;4.00;2.50;;;29.30;96.30;;;;;;5111771;28;20625;-66
2022/07/24 11:00:27;;;;;;;4.20;2.50;;;29.40;96.30;;;;;;5111294;28;20293;-66
2022/07/24 11:03:04;;;;;;;4.72;2.40;;;29.40;96.40;;;;;;5113547;28;20306;-64
2022/07/24 11:05:33;;;;;;;3.65;2.45;;;29.50;96.60;;;;;;5115783;28;20191;-67
2022/07/24 11:08:33;;;;;;;4.88;2.55;;;29.40;96.50;;;;;;5117417;27;20207;-67
2022/07/24 11:11:16;;;;;;;4.80;2.80;;;29.50;97.00;;;;;;5138080;27;20279;-68
2022/07/24 11:13:45;;;;;;;4.43;3.10;;;29.50;97.50;;;;;;5119255;27;20633;-67
2022/07/24 11:16:18;;;;;;;5.70;3.45;;;29.30;97.90;;;;;;5134459;27;20298;-66
2022/07/24 11:19:18;;;;;;;7.68;4.18;;;29.00;99.00;;;;;;5136032;27;20191;-66
2022/07/24 11:22:01;;;;;;;8.15;5.32;;;28.90;99.90;;;;;;5135583;27;20221;-67
2022/07/24 11:24:30;;;;;;;6.63;5.47;;;28.70;99.90;;;;;;5135572;27;20304;-68
2022/07/24 11:26:58;;;;;;;11.07;6.65;;;28.40;99.90;;;;;;5135388;27;20208;-67
2022/07/24 11:29:27;;;;;;;9.32;5.90;;;28.20;99.90;;;;;;5123141;27;20202;-69
2022/07/24 11:31:56;;;;;;;9.35;6.57;;;28.00;99.90;;;;;;5135150;27;20204;-69
2022/07/24 11:34:23;;;;;;;8.90;6.05;;;27.80;99.90;;;;;;5135346;27;20202;-66
2022/07/24 11:36:53;;;;;;;9.30;6.30;;;27.70;99.90;;;;;;5135505;27;20201;-66
2022/07/24 11:39:26;;;;;;;7.75;6.10;;;27.60;99.90;;;;;;5135476;27;20261;-68
2022/07/24 11:41:55;;;;;;;7.78;6.32;;;27.40;99.90;;;;;;5135215;27;20192;-67
2022/07/24 11:44:25;;;;;;;9.00;6.82;;;27.30;99.90;;;;;;5135187;27;20389;-68
2022/07/24 11:46:54;;;;;;;8.40;6.57;;;27.10;99.90;;;;;;5118146;27;20213;-67
2022/07/24 11:49:20;;;;;;;8.73;6.38;;;26.90;99.90;;;;;;5123388;27;20224;-67
2022/07/24 11:51:50;;;;;;;8.43;6.32;;;26.70;99.90;;;;;;5125980;27;20266;-67
2022/07/24 11:54:27;;;;;;;8.05;6.60;;;26.80;99.90;;;;;;5135578;27;20286;-69
2022/07/24 11:56:55;;;;;;;12.98;6.88;;;26.70;99.90;;;;;;5118233;27;20273;-67
2022/07/24 11:59:23;;;;;;;8.18;6.95;;;26.60;99.90;;;;;;5119194;27;20643;-67
2022/07/24 12:01:50;;;;;;;11.20;7.60;;;26.40;99.90;;;;;;5124072;27;20292;-70
2022/07/24 12:04:20;;;;;;;10.80;7.38;;;26.10;99.90;;;;;;5119528;27;20308;-70
2022/07/24 12:06:48;;;;;;;10.60;7.83;;;25.90;99.90;;;;;;5115979;27;20333;-67
2022/07/24 12:09:15;;;;;;;8.77;7.60;;;25.70;99.90;;;;;;5118259;27;20205;-66
2022/07/24 12:11:43;;;;;;;9.53;7.17;;;25.50;99.90;;;;;;5135395;27;20226;-68
2022/07/24 12:14:17;;;;;;;9.13;7.17;;;25.40;99.90;;;;;;5132130;27;20197;-68
2022/07/24 12:16:44;;;;;;;10.20;7.30;;;25.30;99.90;;;;;;5135237;27;20606;-67
2022/07/24 12:19:16;;;;;;;10.00;8.20;;;25.20;99.90;;;;;;5132110;27;20692;-69
2022/07/24 12:21:44;;;;;;;10.27;8.10;;;25.10;99.90;;;;;;5116208;27;20295;-68
2022/07/24 12:24:12;;;;;;;10.37;7.70;;;25.00;99.90;;;;;;5124038;27;20756;-67
2022/07/24 12:26:55;;;;;;;13.23;8.13;;;24.90;99.90;;;;;;5114184;28;20205;-67
2022/07/24 12:29:23;;;;;;;11.07;7.30;;;24.80;99.90;;;;;;5122969;27;20198;-68
2022/07/24 12:31:50;;;;;;;10.80;8.27;;;24.70;99.90;;;;;;5134180;27;20605;-67
2022/07/24 12:34:17;;;;;;;10.53;7.87;;;24.60;99.90;;;;;;5130389;27;20223;-67
2022/07/24 12:36:44;;;;;;;10.67;7.40;;;24.60;99.90;;;;;;5126907;27;20628;-67
2022/07/24 12:39:13;;;;;;;10.47;8.10;;;24.60;99.90;;;;;;5128360;27;20208;-67
2022/07/24 12:41:45;;;;;;;9.77;7.83;;;24.60;99.90;;;;;;5134306;27;20201;-67
2022/07/24 12:44:13;;;;;;;11.50;7.77;;;24.60;99.90;;;;;;5122440;27;20214;-68
2022/07/24 12:46:42;;;;;;;11.97;8.17;;;24.60;99.90;;;;;;5133712;27;20613;-66
2022/07/24 12:49:10;;;;;;;10.87;7.80;;;24.60;99.90;;;;;;5134414;27;20296;-67
2022/07/24 12:51:49;;;;;;;12.97;8.57;;;24.60;99.90;;;;;;5134278;27;20325;-66
2022/07/24 12:54:18;;;;;;;12.30;9.27;;;24.50;99.90;;;;;;5122681;27;20291;-68
2022/07/24 12:56:45;;;;;;;14.40;9.63;;;24.40;99.90;;;;;;5128859;27;20653;-67
2022/07/24 12:59:25;;;;;;;12.83;8.30;;;24.40;99.90;;;;;;5134497;27;20288;-69
2022/07/24 13:01:53;;;;;;;10.93;8.17;;;24.40;99.90;;;;;;5134028;27;20204;-67
2022/07/24 13:04:22;;;;;;;11.80;8.57;;;24.30;99.90;;;;;;5134475;27;20588;-70
2022/07/24 13:06:51;;;;;;;11.20;8.87;;;24.20;99.90;;;;;;5134184;27;20261;-68
2022/07/24 13:09:20;;;;;;;12.23;8.83;;;24.20;99.90;;;;;;5134052;27;20202;-70
2022/07/24 13:11:48;;;;;;;11.63;9.33;;;24.10;99.90;;;;;;5130580;27;20290;-68
2022/07/24 13:14:16;;;;;;;12.17;8.13;;;24.00;99.90;;;;;;5134364;27;20225;-69
2022/07/24 13:16:47;;;;;;;12.37;9.40;;;23.60;99.90;;;;;;5133906;27;20208;-69
2022/07/24 13:19:15;;;;;;;11.93;8.63;;;23.50;99.90;;;;;;5134473;27;20288;-66
2022/07/24 13:21:43;;;;;;;9.80;8.20;;;23.40;99.90;;;;;;5133351;27;20295;-65
2022/07/24 13:24:12;;;;;;;12.30;8.97;;;23.30;99.90;;;;;;5123629;27;20226;-66
2022/07/24 13:26:41;;;;;;;12.63;9.17;;;23.30;99.90;;;;;;5124856;27;20641;-66
2022/07/24 13:29:08;;;;;;;13.20;9.03;;;23.10;99.90;;;;;;5120033;27;20656;-67
2022/07/24 13:31:35;;;;;;;11.17;8.60;;;23.00;99.90;;;;;;5133311;27;20214;-66
2022/07/24 13:34:04;;;;;;;13.83;8.50;;;22.80;99.90;;;;;;5126738;27;20611;-67
2022/07/24 13:36:33;;;;;;;13.40;8.57;;;22.70;99.90;;;;;;5113383;28;20661;-69
2022/07/24 13:39:00;;;;;;;16.63;9.43;;;22.60;99.90;;;;;;5113135;28;20713;-68
2022/07/24 13:41:27;;;;;;;12.57;9.37;;;22.50;99.90;;;;;;5126685;27;20199;-67
2022/07/24 13:43:54;;;;;;;11.50;9.13;;;22.40;99.90;;;;;;5127943;27;20223;-65
2022/07/24 13:46:21;;;;;;;12.73;8.73;;;22.30;99.90;;;;;;5119474;27;20207;-67
2022/07/24 13:48:49;;;;;;;12.57;9.10;;;22.30;99.90;;;;;;5112446;27;20211;-66
2022/07/24 13:51:18;;;;;;;13.10;10.20;;;22.20;99.90;;;;;;5113874;27;20322;-66
2022/07/24 13:53:45;;;;;;;14.63;10.53;;;22.10;99.90;;;;;;5114736;27;20275;-70
2022/07/24 13:56:13;;;;;;;13.40;10.37;;;22.00;99.90;;;;;;5111831;28;20294;-66
2022/07/24 13:58:41;;;;;;;12.13;9.93;;;21.90;99.90;;;;;;5111493;28;20207;-66
2022/07/24 14:01:09;;;;;;;13.50;10.13;;;21.80;99.90;;;;;;5118720;27;20310;-66
2022/07/24 14:03:39;;;;;;;14.13;10.87;;;21.80;99.90;;;;;;5125121;27;20222;-65
2022/07/24 14:06:06;;;;;;;14.27;10.60;;;21.80;99.90;;;;;;5118347;27;20202;-67
2022/07/24 14:08:35;;;;;;;14.47;10.80;;;21.80;99.90;;;;;;5131556;27;20199;-66
2022/07/24 14:11:02;;;;;;;15.60;11.20;;;21.90;99.90;;;;;;5120885;27;20206;-67
2022/07/24 14:13:29;;;;;;;15.37;10.87;;;21.90;99.90;;;;;;5116367;27;20203;-68
2022/07/24 14:15:56;;;;;;;14.20;10.43;;;21.90;99.90;;;;;;5112786;28;20250;-68
2022/07/24 14:18:23;;;;;;;14.97;10.43;;;22.00;99.90;;;;;;5124152;27;20719;-67
2022/07/24 14:20:50;;;;;;;16.67;9.90;;;22.00;99.90;;;;;;5133035;27;20206;-67
2022/07/24 14:23:17;;;;;;;14.70;10.37;;;21.90;99.90;;;;;;5132802;27;20298;-66
2022/07/24 14:25:46;;;;;;;12.00;9.80;;;21.90;99.90;;;;;;5132657;27;20279;-65
2022/07/24 14:28:13;;;;;;;14.13;10.00;;;21.80;99.90;;;;;;5133032;27;20199;-66
2022/07/24 14:30:40;;;;;;;13.07;9.77;;;21.70;99.90;;;;;;5122714;27;20712;-65
2022/07/24 14:33:08;;;;;;;12.70;9.27;;;21.70;99.90;;;;;;5128250;27;20236;-67
2022/07/24 14:35:35;;;;;;;11.83;9.03;;;21.50;99.90;;;;;;5126826;27;20199;-67
2022/07/24 14:38:02;;;;;;;12.30;9.50;;;21.50;99.90;;;;;;5126811;27;20766;-67
2022/07/24 14:40:29;;;;;;;11.73;9.93;;;21.50;99.90;;;;;;5132576;27;20202;-66
2022/07/24 14:42:58;;;;;;;13.70;10.20;;;21.50;99.90;;;;;;5132107;27;20222;-66
2022/07/24 14:45:25;;;;;;;12.60;9.57;;;21.50;99.90;;;;;;5132783;27;20223;-67